createdAt,value
2018-09-10T00:42:47.700Z,49
2018-09-10T00:43:37.808Z,49
2018-09-10T00:44:27.301Z,49
2018-09-10T00:45:17.096Z,49
2018-09-10T00:46:07.399Z,49
2018-09-10T00:46:57.493Z,49
2018-09-10T00:47:48.119Z,49
2018-09-10T00:48:37.899Z,48.9
2018-09-10T00:49:27.378Z,49
2018-09-10T00:50:18.003Z,49
2018-09-10T00:51:08.338Z,48.9
2018-09-10T00:51:57.283Z,48.9
2018-09-10T00:52:48.401Z,48.9
2018-09-10T00:53:37.677Z,48.9
2018-09-10T00:54:28.049Z,48.9
2018-09-10T00:55:18.318Z,48.9
2018-09-10T00:56:08.730Z,48.9
2018-09-10T00:56:58.206Z,48.9
2018-09-10T00:57:48.263Z,48.9
2018-09-10T00:58:38.905Z,48.9
2018-09-10T00:59:28.733Z,48.9
2018-09-10T01:00:18.762Z,48.9
2018-09-10T01:01:08.527Z,48.9
2018-09-10T01:01:58.590Z,48.9
2018-09-10T01:02:49.473Z,48.9
2018-09-10T01:03:39.004Z,48.9
2018-09-10T01:04:29.095Z,48.9
2018-09-10T01:05:19.417Z,48.9
2018-09-10T01:06:09.185Z,48.9
2018-09-10T01:06:59.241Z,48.9
2018-09-10T01:07:49.305Z,48.9
2018-09-10T01:08:39.654Z,48.9
2018-09-10T01:09:29.479Z,48.9
2018-09-10T01:10:19.814Z,48.9
2018-09-10T01:11:09.850Z,48.9
2018-09-10T01:11:59.912Z,48.9
2018-09-10T01:12:50.205Z,48.8
2018-09-10T01:13:40.302Z,48.8
2018-09-10T01:14:29.851Z,48.8
2018-09-10T01:15:19.617Z,48.8
2018-09-10T01:16:09.931Z,48.8
2018-09-10T01:16:59.727Z,48.8
2018-09-10T01:17:49.772Z,48.8
2018-09-10T01:18:40.107Z,48.8
2018-09-10T01:19:30.469Z,48.8
2018-09-10T01:20:20.262Z,48.8
2018-09-10T01:21:10.065Z,48.8
2018-09-10T01:22:00.652Z,48.8
2018-09-10T01:22:50.736Z,48.8
2018-09-10T01:23:41.074Z,48.8
2018-09-10T01:24:30.123Z,48.8
2018-09-10T01:25:20.935Z,48.8
2018-09-10T01:26:11.011Z,48.8
2018-09-10T01:27:00.764Z,48.8
2018-09-10T01:27:50.833Z,48.8
2018-09-10T01:28:40.061Z,48.8
2018-09-10T01:29:30.678Z,48.8
2018-09-10T01:30:19.869Z,48.8
2018-09-10T01:31:10.516Z,48.8
2018-09-10T01:32:00.887Z,48.8
2018-09-10T01:32:50.944Z,48.8
2018-09-10T01:33:40.738Z,48.7
2018-09-10T01:34:31.318Z,48.7
2018-09-10T01:35:21.671Z,48.8
2018-09-10T01:36:11.463Z,48.7
2018-09-10T01:37:01.815Z,48.7
2018-09-10T01:37:51.890Z,48.7
2018-09-10T01:38:41.651Z,48.7
2018-09-10T01:39:31.981Z,48.7
2018-09-10T01:40:22.070Z,48.7
2018-09-10T01:41:11.571Z,48.7
2018-09-10T01:42:02.205Z,48.7
2018-09-10T01:42:52.313Z,48.7
2018-09-10T01:43:42.058Z,48.7
2018-09-10T01:44:32.082Z,48.7
2018-09-10T01:45:22.144Z,48.6
2018-09-10T01:46:12.491Z,48.7
2018-09-10T01:47:02.580Z,48.6
2018-09-10T01:47:52.364Z,48.6
2018-09-10T01:48:42.953Z,48.7
2018-09-10T01:49:32.709Z,48.6
2018-09-10T01:50:23.047Z,48.6
2018-09-10T01:51:12.578Z,48.6
2018-09-10T01:52:02.085Z,48.6
2018-09-10T01:52:53.017Z,48.6
2018-09-10T01:53:42.767Z,48.6
2018-09-10T01:54:33.114Z,48.6
2018-09-10T01:55:22.640Z,48.6
2018-09-10T01:56:12.683Z,48.6
2018-09-10T01:57:02.756Z,48.6
2018-09-10T01:57:53.106Z,48.6
2018-09-10T01:58:43.428Z,48.6
2018-09-10T01:59:33.225Z,48.6
2018-09-10T02:00:23.861Z,48.6
2018-09-10T02:01:13.344Z,48.6
2018-09-10T02:02:03.464Z,48.6
2018-09-10T02:02:53.456Z,48.6
2018-09-10T02:03:43.553Z,48.6
2018-09-10T02:04:33.608Z,48.6
2018-09-10T02:05:23.666Z,48.6
2018-09-10T02:06:13.406Z,48.6
2018-09-10T02:07:04.056Z,48.6
2018-09-10T02:07:54.104Z,48.5
2018-09-10T02:08:43.889Z,48.5
2018-09-10T02:09:33.961Z,48.5
2018-09-10T02:10:24.311Z,48.6
2018-09-10T02:11:14.078Z,48.5
2018-09-10T02:12:04.159Z,48.5
2018-09-10T02:12:54.178Z,48.5
2018-09-10T02:13:44.552Z,48.5
2018-09-10T02:14:34.336Z,48.5
2018-09-10T02:15:24.518Z,48.5
2018-09-10T02:16:15.008Z,48.5
2018-09-10T02:17:05.426Z,48.5
2018-09-10T02:17:54.898Z,48.5
2018-09-10T02:18:44.680Z,48.5
2018-09-10T02:19:34.723Z,48.5
2018-09-10T02:20:25.217Z,48.4
2018-09-10T02:21:14.281Z,48.4
2018-09-10T02:22:04.631Z,48.4
2018-09-10T02:22:54.990Z,48.4
2018-09-10T02:23:45.818Z,48.4
2018-09-10T02:24:35.170Z,48.4
2018-09-10T02:25:25.188Z,48.4
2018-09-10T02:26:15.220Z,48.4
2018-09-10T02:27:05.265Z,48.4
2018-09-10T02:27:56.526Z,48.4
2018-09-10T02:28:45.402Z,48.4
2018-09-10T02:29:35.727Z,48.4
2018-09-10T02:30:25.278Z,48.4
2018-09-10T02:31:15.877Z,48.4
2018-09-10T02:32:05.710Z,48.4
2018-09-10T02:32:56.043Z,48.4
2018-09-10T02:33:46.075Z,48.4
2018-09-10T02:34:36.145Z,48.4
2018-09-10T02:35:26.465Z,48.4
2018-09-10T02:36:15.730Z,48.4
2018-09-10T02:37:06.639Z,48.4
2018-09-10T02:37:56.776Z,48.4
2018-09-10T02:38:47.255Z,48.4
2018-09-10T02:39:36.407Z,48.4
2018-09-10T02:40:26.547Z,48.4
2018-09-10T02:41:15.532Z,48.4
2018-09-10T02:42:06.977Z,48.4
2018-09-10T02:42:56.229Z,48.3
2018-09-10T02:43:46.529Z,48.3
2018-09-10T02:44:36.907Z,48.3
2018-09-10T02:45:26.667Z,48.3
2018-09-10T02:46:16.152Z,48.3
2018-09-10T02:47:07.343Z,48.3
2018-09-10T02:47:56.899Z,48.3
2018-09-10T02:48:46.654Z,48.3
2018-09-10T02:49:37.794Z,48.3
2018-09-10T02:50:26.268Z,48.3
2018-09-10T02:51:17.396Z,48.3
2018-09-10T02:52:06.918Z,48.3
2018-09-10T02:52:57.530Z,48.3
2018-09-10T02:53:47.537Z,48.3
2018-09-10T02:54:37.918Z,48.3
2018-09-10T02:55:27.947Z,48.3
2018-09-10T02:56:17.368Z,48.3
2018-09-10T02:57:07.543Z,48.3
2018-09-10T02:57:57.626Z,48.3
2018-09-10T02:58:48.138Z,48.3
2018-09-10T02:59:38.453Z,48.3
2018-09-10T03:00:27.809Z,48.3
2018-09-10T03:01:17.863Z,48.3
2018-09-10T03:02:08.223Z,48.3
2018-09-10T03:02:57.993Z,48.3
2018-09-10T03:03:48.068Z,48.3
2018-09-10T03:04:38.158Z,48.3
2018-09-10T03:05:28.411Z,48.2
2018-09-10T03:06:17.686Z,48.2
2018-09-10T03:07:08.646Z,48.2
2018-09-10T03:07:58.636Z,48.2
2018-09-10T03:08:48.770Z,48.2
2018-09-10T03:09:37.937Z,48.2
2018-09-10T03:10:28.545Z,48.2
2018-09-10T03:11:18.621Z,48.2
2018-09-10T03:12:08.423Z,48.2
2018-09-10T03:12:59.020Z,48.2
2018-09-10T03:13:48.518Z,48.1
2018-09-10T03:14:39.698Z,48.2
2018-09-10T03:15:30.505Z,48.2
2018-09-10T03:16:20.525Z,48.1
2018-09-10T03:17:08.845Z,48.1
2018-09-10T03:17:59.570Z,48.1
2018-09-10T03:18:49.455Z,48.1
2018-09-10T03:19:38.711Z,48.1
2018-09-10T03:20:29.830Z,48.1
2018-09-10T03:21:19.379Z,48.1
2018-09-10T03:22:09.697Z,48.1
2018-09-10T03:22:59.254Z,48.1
2018-09-10T03:23:49.551Z,48.1
2018-09-10T03:24:39.877Z,48.1
2018-09-10T03:25:30.637Z,48.1
2018-09-10T03:26:20.045Z,48.1
2018-09-10T03:27:09.787Z,48.1
2018-09-10T03:27:59.584Z,48.1
2018-09-10T03:28:49.084Z,48.1
2018-09-10T03:29:40.006Z,48.1
2018-09-10T03:30:30.936Z,48.1
2018-09-10T03:31:20.421Z,48.1
2018-09-10T03:32:10.219Z,48.1
2018-09-10T03:33:00.538Z,48.1
2018-09-10T03:33:50.806Z,48.1
2018-09-10T03:34:40.353Z,48.1
2018-09-10T03:35:30.430Z,48.1
2018-09-10T03:36:20.201Z,48.1
2018-09-10T03:37:10.564Z,48.1
2018-09-10T03:38:00.331Z,48.1
2018-09-10T03:38:50.676Z,48.1
2018-09-10T03:39:41.053Z,48.1
2018-09-10T03:40:30.525Z,48
2018-09-10T03:41:21.173Z,48
2018-09-10T03:42:10.947Z,48
2018-09-10T03:43:01.007Z,48
2018-09-10T03:43:51.678Z,48
2018-09-10T03:44:41.551Z,48
2018-09-10T03:45:30.895Z,48
2018-09-10T03:46:21.250Z,48
2018-09-10T03:47:11.607Z,48
2018-09-10T03:48:01.373Z,48
2018-09-10T03:48:51.426Z,47.9
2018-09-10T03:49:41.551Z,47.9
2018-09-10T03:50:31.865Z,47.9
2018-09-10T03:51:22.146Z,48
2018-09-10T03:52:11.400Z,47.9
2018-09-10T03:53:02.073Z,47.9
2018-09-10T03:53:51.240Z,47.9
2018-09-10T03:54:41.851Z,47.9
2018-09-10T03:55:31.906Z,47.9
2018-09-10T03:56:22.562Z,47.9
2018-09-10T03:57:12.023Z,47.9
2018-09-10T03:58:02.415Z,47.9
2018-09-10T03:58:52.457Z,47.9
2018-09-10T03:59:41.964Z,47.9
2018-09-10T04:00:32.319Z,47.9
2018-09-10T04:01:22.324Z,47.9
2018-09-10T04:02:13.004Z,47.9
2018-09-10T04:03:03.152Z,47.9
2018-09-10T04:03:52.689Z,47.9
2018-09-10T04:04:42.444Z,47.9
2018-09-10T04:05:32.444Z,47.9
2018-09-10T04:06:23.706Z,47.9
2018-09-10T04:07:13.072Z,47.9
2018-09-10T04:08:03.141Z,47.9
2018-09-10T04:08:52.904Z,47.9
2018-09-10T04:09:43.020Z,47.8
2018-09-10T04:10:33.321Z,47.9
2018-09-10T04:11:22.894Z,47.9
2018-09-10T04:12:13.524Z,47.8
2018-09-10T04:13:03.223Z,47.9
2018-09-10T04:13:53.595Z,47.9
2018-09-10T04:14:42.796Z,47.8
2018-09-10T04:15:33.711Z,47.8
2018-09-10T04:16:23.816Z,47.8
2018-09-10T04:17:14.293Z,47.8
2018-09-10T04:18:03.911Z,47.8
2018-09-10T04:18:53.972Z,47.8
2018-09-10T04:19:43.489Z,47.8
2018-09-10T04:20:33.270Z,47.8
2018-09-10T04:21:23.589Z,47.8
2018-09-10T04:22:13.693Z,47.8
2018-09-10T04:23:04.405Z,47.8
2018-09-10T04:23:53.197Z,47.8
2018-09-10T04:24:44.425Z,47.8
2018-09-10T04:25:34.193Z,47.8
2018-09-10T04:26:24.707Z,47.8
2018-09-10T04:27:14.455Z,47.8
2018-09-10T04:28:04.080Z,47.8
2018-09-10T04:28:54.443Z,47.8
2018-09-10T04:29:44.527Z,47.8
2018-09-10T04:30:34.877Z,47.8
2018-09-10T04:31:24.113Z,47.8
2018-09-10T04:32:14.942Z,47.8
2018-09-10T04:33:05.281Z,47.8
2018-09-10T04:33:54.890Z,47.8
2018-09-10T04:34:44.878Z,47.8
2018-09-10T04:35:34.927Z,47.8
2018-09-10T04:36:24.707Z,47.7
2018-09-10T04:37:15.310Z,47.7
2018-09-10T04:38:05.658Z,47.7
2018-09-10T04:38:55.212Z,47.7
2018-09-10T04:39:44.982Z,47.7
2018-09-10T04:40:35.580Z,47.7
2018-09-10T04:41:25.407Z,47.7
2018-09-10T04:42:15.716Z,47.7
2018-09-10T04:43:06.090Z,47.7
2018-09-10T04:43:55.224Z,47.7
2018-09-10T04:44:45.610Z,47.7
2018-09-10T04:45:35.958Z,47.7
2018-09-10T04:46:25.178Z,47.6
2018-09-10T04:47:15.227Z,47.7
2018-09-10T04:48:05.854Z,47.7
2018-09-10T04:48:55.358Z,47.6
2018-09-10T04:49:47.420Z,47.6
2018-09-10T04:50:35.777Z,47.6
2018-09-10T04:51:25.842Z,47.6
2018-09-10T04:52:16.180Z,47.6
2018-09-10T04:53:06.250Z,47.6
2018-09-10T04:53:56.332Z,47.6
2018-09-10T05:11:37.359Z,47.5
2018-09-10T05:12:26.346Z,47.5
2018-09-10T05:13:16.666Z,47.5
2018-09-10T05:14:06.736Z,47.5
2018-09-10T05:14:56.832Z,47.5
2018-09-10T05:15:46.599Z,47.5
2018-09-10T05:16:37.246Z,47.5
2018-09-10T05:17:27.023Z,47.5
2018-09-10T05:18:16.788Z,47.4
2018-09-10T05:19:08.188Z,47.5
2018-09-10T05:19:57.753Z,47.4
2018-09-10T05:20:47.407Z,47.4
2018-09-10T05:21:37.819Z,47.4
2018-09-10T05:22:26.533Z,47.4
2018-09-10T05:23:17.446Z,47.4
2018-09-10T05:24:06.624Z,47.4
2018-09-10T05:24:57.343Z,47.4
2018-09-10T05:25:46.847Z,47.4
2018-09-10T05:26:38.030Z,47.4
2018-09-10T05:27:27.470Z,47.4
2018-09-10T05:28:18.874Z,47.4
2018-09-10T05:29:07.387Z,47.4
2018-09-10T05:29:57.338Z,47.4
2018-09-10T05:30:47.752Z,47.4
2018-09-10T05:31:38.052Z,47.4
2018-09-10T05:32:28.140Z,47.4
2018-09-10T05:33:17.892Z,47.4
2018-09-10T05:34:07.667Z,47.4
2018-09-10T05:34:57.765Z,47.4
2018-09-10T05:35:48.414Z,47.4
2018-09-10T05:36:38.129Z,47.4
2018-09-10T05:37:28.735Z,47.4
2018-09-10T05:38:18.551Z,47.4
2018-09-10T05:39:08.966Z,47.4
2018-09-10T05:39:58.458Z,47.4
2018-09-10T05:40:48.678Z,47.3
2018-09-10T05:41:40.018Z,47.4
2018-09-10T05:42:29.291Z,47.3
2018-09-10T05:43:18.914Z,47.3
2018-09-10T05:44:08.978Z,47.3
2018-09-10T05:44:59.073Z,47.3
2018-09-10T05:45:48.828Z,47.3
2018-09-10T05:46:38.706Z,47.3
2018-09-10T05:47:30.477Z,47.3
2018-09-10T05:48:19.378Z,47.3
2018-09-10T05:49:08.811Z,47.3
2018-09-10T05:49:59.157Z,47.3
2018-09-10T05:50:49.518Z,47.3
2018-09-10T05:51:39.290Z,47.3
2018-09-10T05:52:29.268Z,47.3
2018-09-10T05:53:21.114Z,47.3
2018-09-10T05:54:09.808Z,47.3
2018-09-10T05:54:59.860Z,47.3
2018-09-10T05:55:49.868Z,47.3
2018-09-10T05:56:39.629Z,47.3
2018-09-10T05:57:30.496Z,47.3
2018-09-10T05:58:19.780Z,47.3
2018-09-10T05:59:09.544Z,47.3
2018-09-10T06:00:00.190Z,47.3
2018-09-10T06:00:49.944Z,47.3
2018-09-10T06:01:40.297Z,47.2
2018-09-10T06:02:30.916Z,47.3
2018-09-10T06:03:19.825Z,47.3
2018-09-10T06:04:10.289Z,47.2
2018-09-10T06:05:00.283Z,47.2
2018-09-10T06:05:49.840Z,47.2
2018-09-10T06:06:40.395Z,47.2
2018-09-10T06:07:30.742Z,47.2
2018-09-10T06:08:20.567Z,47.2
2018-09-10T06:09:10.890Z,47.2
2018-09-10T06:10:00.959Z,47.2
2018-09-10T06:10:51.167Z,47.2
2018-09-10T06:11:41.340Z,47.2
2018-09-10T06:12:31.079Z,47.2
2018-09-10T06:13:21.444Z,47.2
2018-09-10T06:14:10.633Z,47.2
2018-09-10T06:15:01.012Z,47.1
2018-09-10T06:15:51.094Z,47.2
2018-09-10T06:16:41.499Z,47.1
2018-09-10T06:17:31.287Z,47.1
2018-09-10T06:18:21.279Z,47.1
2018-09-10T06:19:11.696Z,47.1
2018-09-10T06:20:00.578Z,47.1
2018-09-10T06:20:51.167Z,47.1
2018-09-10T06:21:41.812Z,47.1
2018-09-10T06:22:31.579Z,47.1
2018-09-10T06:23:21.066Z,47.1
2018-09-10T06:24:11.405Z,47.1
2018-09-10T06:25:02.299Z,47.1
2018-09-10T06:25:51.838Z,47.1
2018-09-10T06:26:42.168Z,47.1
2018-09-10T06:27:32.244Z,47.1
2018-09-10T06:28:22.618Z,47.1
2018-09-10T06:29:12.064Z,47.1
2018-09-10T06:30:02.451Z,47.1
2018-09-10T06:30:52.261Z,47.1
2018-09-10T06:31:41.738Z,47.1
2018-09-10T06:32:32.633Z,47.1
2018-09-10T06:33:22.375Z,47.1
2018-09-10T06:34:13.758Z,47.1
2018-09-10T06:35:02.817Z,47.1
2018-09-10T06:35:52.643Z,47.1
2018-09-10T06:36:42.941Z,47.1
2018-09-10T06:37:33.028Z,47.1
2018-09-10T06:38:23.081Z,47.1
2018-09-10T06:39:12.939Z,47
2018-09-10T06:40:03.176Z,47
2018-09-10T06:40:52.664Z,47
2018-09-10T06:41:43.051Z,47
2018-09-10T06:42:33.083Z,47
2018-09-10T06:43:22.861Z,47
2018-09-10T06:44:13.489Z,47
2018-09-10T06:45:03.278Z,47
2018-09-10T06:45:53.343Z,47
2018-09-10T06:46:43.156Z,47
2018-09-10T06:47:33.461Z,47
2018-09-10T06:48:23.545Z,47
2018-09-10T06:49:13.605Z,47
2018-09-10T06:50:03.395Z,46.9
2018-09-10T06:50:53.796Z,46.9
2018-09-10T06:51:44.143Z,46.9
2018-09-10T06:52:33.609Z,46.9
2018-09-10T06:53:24.616Z,46.9
2018-09-10T06:54:14.246Z,46.9
2018-09-10T06:55:04.028Z,46.9
2018-09-10T06:55:54.470Z,46.9
2018-09-10T06:56:44.445Z,46.9
2018-09-10T06:57:34.241Z,46.9
2018-09-10T06:58:24.434Z,46.9
2018-09-10T06:59:14.862Z,46.9
2018-09-10T07:00:04.249Z,46.9
2018-09-10T07:00:54.866Z,46.9
2018-09-10T07:01:44.825Z,46.9
2018-09-10T07:02:34.885Z,46.9
2018-09-10T07:03:24.947Z,46.9
2018-09-10T07:04:15.332Z,46.9
2018-09-10T07:05:03.910Z,46.9
2018-09-10T07:05:54.864Z,46.9
2018-09-10T07:06:44.935Z,46.9
2018-09-10T07:07:35.328Z,46.9
2018-09-10T07:08:24.918Z,46.9
2018-09-10T07:09:15.125Z,46.9
2018-09-10T07:10:05.790Z,46.9
2018-09-10T07:10:55.613Z,46.8
2018-09-10T07:11:45.659Z,46.9
2018-09-10T07:12:36.162Z,46.8
2018-09-10T07:13:25.208Z,46.8
2018-09-10T07:14:15.517Z,46.9
2018-09-10T07:15:06.402Z,46.8
2018-09-10T07:15:55.919Z,46.8
2018-09-10T07:16:45.925Z,46.8
2018-09-10T07:17:36.037Z,46.8
2018-09-10T07:18:26.265Z,46.8
2018-09-10T07:19:15.952Z,46.8
2018-09-10T07:20:06.495Z,46.8
2018-09-10T07:20:55.987Z,46.8
2018-09-10T07:21:46.550Z,46.8
2018-09-10T07:22:36.244Z,46.8
2018-09-10T07:23:25.932Z,46.8
2018-09-10T07:24:15.974Z,46.8
2018-09-10T07:25:06.562Z,46.8
2018-09-10T07:25:56.115Z,46.8
2018-09-10T07:26:47.043Z,46.8
2018-09-10T07:27:37.247Z,46.8
2018-09-10T07:28:26.370Z,46.8
2018-09-10T07:29:16.974Z,46.8
2018-09-10T07:30:07.002Z,46.8
2018-09-10T07:30:57.039Z,46.8
2018-09-10T07:31:47.150Z,46.8
2018-09-10T07:32:36.902Z,46.8
2018-09-10T07:33:26.695Z,46.8
2018-09-10T07:34:16.716Z,46.8
2018-09-10T07:35:07.393Z,46.8
2018-09-10T07:35:57.138Z,46.7
2018-09-10T07:36:46.920Z,46.7
2018-09-10T07:37:37.555Z,46.7
2018-09-10T07:38:27.621Z,46.7
2018-09-10T07:39:17.689Z,46.7
2018-09-10T07:40:07.740Z,46.8
2018-09-10T07:40:57.529Z,46.7
2018-09-10T07:41:47.035Z,46.7
2018-09-10T07:42:37.927Z,46.7
2018-09-10T07:43:28.411Z,46.7
2018-09-10T07:44:18.857Z,46.7
2018-09-10T07:45:08.122Z,46.7
2018-09-10T07:45:58.251Z,46.7
2018-09-10T07:46:47.667Z,46.7
2018-09-10T07:47:38.564Z,46.7
2018-09-10T07:48:28.377Z,46.6
2018-09-10T07:49:18.434Z,46.7
2018-09-10T07:50:08.533Z,46.6
2018-09-10T07:50:58.582Z,46.6
2018-09-10T07:51:48.084Z,46.6
2018-09-10T07:52:38.767Z,46.6
2018-09-10T07:53:28.769Z,46.6
2018-09-10T07:54:18.821Z,46.6
2018-09-10T07:55:08.894Z,46.6
2018-09-10T07:55:58.997Z,46.6
2018-09-10T07:56:49.063Z,46.6
2018-09-10T07:57:39.074Z,46.6
2018-09-10T07:58:29.136Z,46.6
2018-09-10T07:59:19.189Z,46.6
2018-09-10T08:00:09.326Z,46.6
2018-09-10T08:00:58.561Z,46.6
2018-09-10T08:01:49.538Z,46.6
2018-09-10T08:02:39.203Z,46.6
2018-09-10T08:03:28.976Z,46.6
2018-09-10T08:04:19.596Z,46.6
2018-09-10T08:05:08.833Z,46.6
2018-09-10T08:05:59.741Z,46.6
2018-09-10T08:06:49.265Z,46.6
2018-09-10T08:07:39.825Z,46.6
2018-09-10T08:08:29.890Z,46.6
2018-09-10T08:09:20.866Z,46.6
2018-09-10T08:10:09.739Z,46.6
2018-09-10T08:11:00.346Z,46.6
2018-09-10T08:11:50.168Z,46.6
2018-09-10T08:12:39.983Z,46.5
2018-09-10T08:13:30.348Z,46.5
2018-09-10T08:14:20.387Z,46.6
2018-09-10T08:15:09.936Z,46.5
2018-09-10T08:15:59.910Z,46.5
2018-09-10T08:16:50.797Z,46.5
2018-09-10T08:17:40.317Z,46.5
2018-09-10T08:18:30.712Z,46.5
2018-09-10T08:19:20.739Z,46.5
2018-09-10T08:20:10.820Z,46.4
2018-09-10T08:21:00.815Z,46.4
2018-09-10T08:21:50.970Z,46.5
2018-09-10T08:22:40.689Z,46.6
2018-09-10T08:23:31.035Z,46.6
2018-09-10T08:24:22.331Z,46.7
2018-09-10T08:25:11.701Z,46.8
2018-09-10T08:26:00.397Z,46.8
2018-09-10T08:26:51.305Z,46.9
2018-09-10T08:27:41.083Z,46.9
2018-09-10T08:28:31.671Z,47
2018-09-10T08:29:20.934Z,47.1
2018-09-10T08:30:10.991Z,47.3
2018-09-10T08:31:01.723Z,47.3
2018-09-10T08:31:51.666Z,47.4
2018-09-10T08:32:41.449Z,47.5
2018-09-10T08:33:31.557Z,47.6
2018-09-10T08:34:21.419Z,47.6
2018-09-10T08:35:11.946Z,47.6
2018-09-10T08:36:02.302Z,47.7
2018-09-10T08:36:53.086Z,47.8
2018-09-10T08:37:42.464Z,47.8
2018-09-10T08:38:31.956Z,47.8
2018-09-10T08:39:22.526Z,47.9
2018-09-10T08:40:12.344Z,47.9
2018-09-10T08:41:02.719Z,48
2018-09-10T08:41:52.446Z,48
2018-09-10T08:42:42.919Z,48
2018-09-10T08:43:31.453Z,48
2018-09-10T08:44:22.366Z,48.1
2018-09-10T08:45:12.719Z,48.1
2018-09-10T08:46:02.789Z,48.1
2018-09-10T08:46:53.141Z,48.1
2018-09-10T08:47:42.617Z,48.1
2018-09-10T08:48:32.928Z,48.2
2018-09-10T08:49:23.073Z,48.2
2018-09-10T08:50:12.221Z,48.3
2018-09-10T08:51:02.879Z,48.3
2018-09-10T08:51:52.365Z,48.4
2018-09-10T08:52:42.995Z,48.4
2018-09-10T08:53:32.805Z,48.5
2018-09-10T08:54:26.167Z,48.6
2018-09-10T08:55:15.352Z,48.6
2018-09-10T08:56:06.109Z,48.6
2018-09-10T08:56:54.639Z,48.6
2018-09-10T08:57:44.322Z,48.6
2018-09-10T08:58:34.321Z,48.6
2018-09-10T08:59:23.868Z,48.6
2018-09-10T09:00:14.619Z,48.6
2018-09-10T09:01:03.932Z,48.6
2018-09-10T09:01:54.740Z,48.6
2018-09-10T09:02:44.055Z,48.7
2018-09-10T09:03:33.819Z,48.7
2018-09-10T09:04:23.607Z,48.7
2018-09-10T09:05:14.468Z,48.7
2018-09-10T09:06:04.806Z,48.7
2018-09-10T09:06:54.377Z,48.8
2018-09-10T09:07:44.428Z,48.8
2018-09-10T09:08:34.539Z,48.9
2018-09-10T09:09:24.578Z,48.9
2018-09-10T09:26:09.034Z,49.7
2018-09-10T09:26:59.598Z,49.8
2018-09-10T09:27:49.374Z,49.8
2018-09-10T09:28:39.969Z,49.8
2018-09-10T09:29:29.784Z,49.8
2018-09-10T09:30:21.300Z,49.8
2018-09-10T09:31:10.414Z,49.9
2018-09-10T09:31:59.681Z,49.9
2018-09-10T09:32:49.530Z,49.9
2018-09-10T09:33:39.572Z,50
2018-09-10T09:34:29.419Z,50
2018-09-10T09:35:19.646Z,50
2018-09-10T09:36:10.350Z,50.1
2018-09-10T09:36:59.784Z,50.1
2018-09-10T09:37:50.121Z,50
2018-09-10T09:38:40.081Z,50
2018-09-10T09:39:29.727Z,50
2018-09-10T09:40:20.607Z,50.1
2018-09-10T09:41:10.107Z,50.1
2018-09-10T09:42:00.478Z,50.1
2018-09-10T09:42:50.511Z,50.1
2018-09-10T09:43:40.349Z,50.1
2018-09-10T09:44:30.929Z,50.1
2018-09-10T09:45:20.436Z,50.1
2018-09-10T09:46:11.053Z,50.1
2018-09-10T09:47:00.880Z,50.1
2018-09-10T09:47:50.931Z,50.1
2018-09-10T09:48:40.959Z,50.1
2018-09-10T09:49:30.743Z,50.1
2018-09-10T09:50:21.103Z,50.1
2018-09-10T09:51:12.444Z,50.2
2018-09-10T09:52:01.491Z,50.2
2018-09-10T09:52:51.281Z,50.3
2018-09-10T09:53:41.368Z,50.3
2018-09-10T09:54:31.380Z,50.3
2018-09-10T09:55:21.311Z,50.3
2018-09-10T09:56:11.852Z,50.3
2018-09-10T09:57:01.615Z,50.4
2018-09-10T09:57:50.795Z,50.4
2018-09-10T09:58:42.012Z,50.5
2018-09-10T09:59:32.032Z,50.6
2018-09-10T10:00:22.115Z,50.6
2018-09-10T10:01:11.899Z,50.7
2018-09-10T10:02:01.704Z,50.7
2018-09-10T10:02:52.332Z,50.8
2018-09-10T10:03:42.413Z,50.8
2018-09-10T10:04:33.650Z,50.9
2018-09-10T10:05:21.679Z,50.9
2018-09-10T10:06:12.014Z,50.9
2018-09-10T10:07:02.719Z,50.9
2018-09-10T10:07:51.848Z,50.9
2018-09-10T10:08:42.537Z,50.9
2018-09-10T10:09:32.849Z,50.9
2018-09-10T10:10:24.055Z,51.1
2018-09-10T10:11:13.755Z,51.1
2018-09-10T10:12:03.299Z,51.1
2018-09-10T10:12:53.124Z,51.1
2018-09-10T10:13:43.156Z,51.1
2018-09-10T10:14:33.198Z,51.1
2018-09-10T10:15:22.506Z,51.1
2018-09-10T10:16:13.326Z,51.1
2018-09-10T10:17:03.453Z,51.1
2018-09-10T10:17:53.708Z,51.1
2018-09-10T10:18:43.257Z,51.2
2018-09-10T10:19:33.111Z,51.3
2018-09-10T10:20:23.649Z,51.3
2018-09-10T10:21:13.173Z,51.4
2018-09-10T10:22:04.452Z,51.4
2018-09-10T10:22:53.593Z,51.4
2018-09-10T10:23:43.439Z,51.5
2018-09-10T10:24:33.423Z,51.6
2018-09-10T10:25:24.039Z,51.6
2018-09-10T10:26:13.558Z,51.6
2018-09-10T10:27:03.893Z,51.6
2018-09-10T10:27:54.228Z,51.7
2018-09-10T10:28:44.028Z,51.7
2018-09-10T10:29:34.358Z,51.8
2018-09-10T10:30:24.135Z,51.8
2018-09-10T10:31:14.478Z,51.8
2018-09-10T10:32:04.563Z,51.9
2018-09-10T10:33:44.669Z,52
2018-09-10T10:34:34.305Z,52.1
2018-09-10T10:35:24.793Z,52.2
2018-09-10T10:36:14.872Z,52.2
2018-09-10T10:37:04.648Z,52.3
2018-09-10T10:37:55.002Z,52.3
2018-09-10T10:38:44.818Z,52.3
2018-09-10T10:39:34.568Z,52.3
2018-09-10T10:42:05.050Z,52.4
2018-09-10T10:42:55.083Z,52.6
2018-09-10T10:43:44.578Z,52.6
2018-09-10T10:44:34.949Z,52.6
2018-09-10T10:45:25.275Z,52.8
2018-09-10T10:46:15.365Z,52.8
2018-09-10T10:47:05.120Z,52.8
2018-09-10T10:47:55.754Z,52.9
2018-09-10T10:48:45.560Z,52.9
2018-09-10T10:49:35.604Z,53
2018-09-10T10:50:26.015Z,53.1
2018-09-10T10:51:16.002Z,53.1
2018-09-10T10:52:05.787Z,53.2
2018-09-10T10:52:55.925Z,53.2
2018-09-10T10:53:46.736Z,53.3
2018-09-10T10:54:35.981Z,53.4
2018-09-10T10:55:26.615Z,53.4
2018-09-10T10:56:16.435Z,53.4
2018-09-10T10:57:06.487Z,53.6
2018-09-10T10:57:56.605Z,53.8
2018-09-10T10:58:46.832Z,53.8
2018-09-10T10:59:36.159Z,53.8
2018-09-10T11:00:26.764Z,53.9
2018-09-10T11:01:16.494Z,54
2018-09-10T11:02:06.596Z,54.1
2018-09-10T11:02:56.917Z,54.1
2018-09-10T11:03:47.961Z,54.3
2018-09-10T11:04:36.483Z,54.4
2018-09-10T11:05:27.141Z,54.4
2018-09-10T11:06:16.942Z,54.6
2018-09-10T11:07:07.196Z,54.6
2018-09-10T11:07:57.296Z,54.7
2018-09-10T11:08:46.831Z,54.8
2018-09-10T11:09:37.127Z,54.8
2018-09-10T11:10:27.183Z,54.9
2018-09-10T11:11:17.536Z,55
2018-09-10T11:12:07.631Z,55.1
2018-09-10T11:12:57.400Z,55.1
2018-09-10T11:13:47.183Z,55.2
2018-09-10T11:14:37.528Z,55.3
2018-09-10T11:15:27.878Z,55.4
2018-09-10T11:16:17.916Z,55.5
2018-09-10T11:17:08.078Z,55.6
2018-09-10T11:17:58.061Z,55.6
2018-09-10T11:18:48.080Z,55.7
2018-09-10T11:19:37.665Z,55.8
2018-09-10T11:20:27.682Z,55.9
2018-09-10T11:21:18.030Z,55.9
2018-09-10T11:22:08.392Z,56
2018-09-10T11:22:58.162Z,56.1
2018-09-10T11:23:48.220Z,56.1
2018-09-10T11:24:38.572Z,56.3
2018-09-10T11:25:28.059Z,56.3
2018-09-10T11:26:18.395Z,56.4
2018-09-10T11:27:08.464Z,56.5
2018-09-10T11:27:58.842Z,56.6
2018-09-10T11:28:48.397Z,56.6
2018-09-10T11:29:38.175Z,56.7
2018-09-10T11:30:29.019Z,56.7
2018-09-10T11:31:18.787Z,56.8
2018-09-10T11:32:09.214Z,56.8
2018-09-10T11:32:59.198Z,56.8
2018-09-10T11:33:49.521Z,56.8
2018-09-10T11:34:40.129Z,56.9
2018-09-10T11:35:29.466Z,57
2018-09-10T11:36:19.174Z,57.1
2018-09-10T11:37:09.598Z,57.1
2018-09-10T11:37:59.617Z,57.2
2018-09-10T11:38:49.639Z,57.3
2018-09-10T11:39:39.707Z,57.3
2018-09-10T11:40:28.961Z,57.4
2018-09-10T11:41:19.835Z,57.4
2018-09-10T11:42:09.332Z,57.4
2018-09-10T11:42:59.739Z,57.5
2018-09-10T11:43:49.753Z,57.5
2018-09-10T11:44:40.103Z,57.5
2018-09-10T11:45:29.360Z,57.5
2018-09-10T11:46:19.704Z,57.5
2018-09-10T11:47:10.263Z,57.5
2018-09-10T11:48:00.335Z,57.5
2018-09-10T11:48:50.458Z,57.5
2018-09-10T11:49:40.483Z,57.6
2018-09-10T11:50:30.237Z,57.6
2018-09-10T11:51:20.643Z,57.5
2018-09-10T11:52:10.920Z,57.5
2018-09-10T11:53:00.480Z,57.5
2018-09-10T11:53:50.505Z,57.5
2018-09-10T11:54:40.673Z,57.5
2018-09-10T11:55:31.683Z,57.5
2018-09-10T11:56:20.747Z,57.5
2018-09-10T11:57:10.763Z,57.5
2018-09-10T11:58:01.120Z,57.5
2018-09-10T11:58:50.882Z,57.5
2018-09-10T11:59:40.382Z,57.5
2018-09-10T12:00:31.020Z,57.5
2018-09-10T12:01:21.367Z,57.5
2018-09-10T12:02:12.696Z,57.5
2018-09-10T12:03:01.200Z,57.5
2018-09-10T12:03:51.657Z,57.5
2018-09-10T12:04:41.617Z,57.5
2018-09-10T12:05:31.417Z,57.5
2018-09-10T12:06:22.033Z,57.5
2018-09-10T12:07:11.816Z,57.5
2018-09-10T12:08:01.893Z,57.5
2018-09-10T12:08:51.716Z,57.5
2018-09-10T12:09:42.504Z,57.4
2018-09-10T12:10:31.807Z,57.5
2018-09-10T12:11:22.384Z,57.5
2018-09-10T12:12:12.199Z,57.5
2018-09-10T12:13:02.020Z,57.5
2018-09-10T12:13:52.364Z,57.4
2018-09-10T12:14:42.868Z,57.4
2018-09-10T12:15:32.156Z,57.4
2018-09-10T12:16:21.896Z,57.4
2018-09-10T12:17:11.773Z,57.4
2018-09-10T12:18:02.627Z,57.4
2018-09-10T12:18:52.703Z,57.4
2018-09-10T12:19:42.180Z,57.4
2018-09-10T12:20:32.841Z,57.4
2018-09-10T12:21:23.326Z,57.4
2018-09-10T12:22:12.957Z,57.4
2018-09-10T12:23:03.042Z,57.4
2018-09-10T12:23:52.316Z,57.4
2018-09-10T12:24:42.663Z,57.4
2018-09-10T12:25:32.350Z,57.4
2018-09-10T12:26:22.971Z,57.4